createdAt,value
2019-04-27T00:00:59.954Z,101562.24
2019-04-27T00:02:04.000Z,101560.03
2019-04-27T00:03:17.600Z,101566.76
2019-04-27T00:04:26.689Z,101562.72
2019-04-27T00:05:35.797Z,101562.72
2019-04-27T00:06:42.966Z,101563.23
2019-04-27T00:07:44.296Z,101563.23
2019-04-27T00:08:56.927Z,101555.30
2019-04-27T00:10:03.602Z,101555.47
2019-04-27T00:11:11.514Z,101556.17
2019-04-27T00:12:16.443Z,101555.17
2019-04-27T00:13:17.525Z,101554.47
2019-04-27T00:14:20.804Z,101559.34
2019-04-27T00:15:24.677Z,101554.47
2019-04-27T00:16:50.357Z,101556.30
2019-04-27T00:18:09.325Z,101555.30
2019-04-27T00:19:13.186Z,101559.55
2019-04-27T00:20:16.947Z,101554.02
2019-04-27T00:21:20.387Z,101555.17
2019-04-27T00:22:29.448Z,101555.30
2019-04-27T00:23:31.852Z,101554.60
2019-04-27T00:24:33.550Z,101556.81
2019-04-27T00:25:36.593Z,101554.12
2019-04-27T00:26:38.107Z,101553.27
2019-04-27T00:27:39.518Z,101553.77
2019-04-27T00:28:41.001Z,101549.74
2019-04-27T00:29:43.190Z,101555.47
2019-04-27T00:30:44.796Z,101551.78
2019-04-27T00:31:46.404Z,101556.81
2019-04-27T00:32:47.913Z,101552.78
2019-04-27T00:33:49.448Z,101553.95
2019-04-27T00:34:50.829Z,101550.09
2019-04-27T00:35:54.307Z,101550.09
2019-04-27T00:37:06.908Z,101554.47
2019-04-27T00:38:16.017Z,101552.61
2019-04-27T00:39:19.313Z,101557.00
2019-04-27T00:40:25.284Z,101549.92
2019-04-27T00:41:26.793Z,101550.09
2019-04-27T00:42:28.204Z,101549.39
2019-04-27T00:43:29.711Z,101548.53
2019-04-27T00:44:31.109Z,101545.66
2019-04-27T00:45:33.507Z,101549.69
2019-04-27T00:46:34.985Z,101543.96
2019-04-27T00:47:36.374Z,101546.65
2019-04-27T00:48:37.773Z,101547.00
2019-04-27T00:49:40.261Z,101548.48
2019-04-27T00:50:41.736Z,101547.99
2019-04-27T00:51:43.478Z,101544.44
2019-04-27T00:52:48.192Z,101542.27
2019-04-27T00:53:49.612Z,101545.95
2019-04-27T00:54:51.034Z,101545.30
2019-04-27T00:56:11.191Z,101548.13
2019-04-27T00:57:14.503Z,101550.33
2019-04-27T00:58:27.029Z,101552.72
2019-04-27T00:59:48.248Z,101551.16
2019-04-27T01:01:09.752Z,101553.38
2019-04-27T01:02:13.502Z,101550.68
2019-04-27T01:03:30.209Z,101556.19
2019-04-27T01:04:35.650Z,101554.63
2019-04-27T01:05:37.052Z,101553.28
2019-04-27T01:06:38.448Z,101550.25
2019-04-27T01:07:39.819Z,101557.92
2019-04-27T01:08:42.782Z,101552.20
2019-04-27T01:09:44.699Z,101551.20
2019-04-27T01:10:46.100Z,101548.03
2019-04-27T01:11:47.512Z,101552.93
2019-04-27T01:12:48.918Z,101553.28
2019-04-27T01:13:50.348Z,101551.94
2019-04-27T01:14:53.507Z,101553.66
2019-04-27T01:15:54.976Z,101551.80
2019-04-27T01:16:56.518Z,101553.02
2019-04-27T01:18:11.482Z,101548.98
2019-04-27T01:19:01.306Z,101554.71
2019-04-27T01:20:03.984Z,101559.45
2019-04-27T01:21:05.552Z,101551.86
2019-04-27T01:22:08.717Z,101552.37
2019-04-27T01:23:10.787Z,101552.86
2019-04-27T01:24:12.348Z,101555.89
2019-04-27T01:25:13.748Z,101555.89
2019-04-27T01:26:33.393Z,101556.06
2019-04-27T01:27:49.411Z,101557.05
2019-04-27T01:28:52.772Z,101553.55
2019-04-27T01:29:55.475Z,101554.42
2019-04-27T01:30:58.903Z,101553.84
2019-04-27T01:32:02.057Z,101554.49
2019-04-27T01:33:03.449Z,101546.08
2019-04-27T01:34:04.848Z,101549.25
2019-04-27T01:35:06.357Z,101555.14
2019-04-27T01:36:08.893Z,101551.59
2019-04-27T01:37:11.090Z,101557.45
2019-04-27T01:38:12.488Z,101549.52
2019-04-27T01:39:16.640Z,101548.52
2019-04-27T01:40:19.336Z,101551.20
2019-04-27T01:41:20.816Z,101552.20
2019-04-27T01:42:22.219Z,101552.20
2019-04-27T01:43:23.636Z,101550.51
2019-04-27T01:44:25.051Z,101551.50
2019-04-27T01:45:26.469Z,101550.16
2019-04-27T01:46:29.504Z,101548.81
2019-04-27T01:47:31.101Z,101550.67
2019-04-27T01:48:32.500Z,101550.16
2019-04-27T01:49:33.889Z,101548.98
2019-04-27T01:50:35.268Z,101545.94
2019-04-27T01:51:36.731Z,101543.59
2019-04-27T01:52:38.576Z,101548.81
2019-04-27T01:53:40.416Z,101545.42
2019-04-27T01:54:41.985Z,101547.98
2019-04-27T01:55:44.912Z,101545.30
2019-04-27T01:56:46.399Z,101546.13
2019-04-27T01:57:48.733Z,101544.78
2019-04-27T01:58:50.420Z,101542.25
2019-04-27T01:59:51.795Z,101545.77
2019-04-27T02:00:59.453Z,101547.63
2019-04-27T02:02:20.934Z,101540.39
2019-04-27T02:03:24.530Z,101540.05
2019-04-27T02:04:29.375Z,101541.09
2019-04-27T02:05:49.254Z,101536.36
2019-04-27T02:06:52.661Z,101538.22
2019-04-27T02:07:54.054Z,101539.41
2019-04-27T02:08:55.548Z,101540.05
2019-04-27T02:09:58.785Z,101533.84
2019-04-27T02:11:00.260Z,101534.97
2019-04-27T02:12:01.656Z,101533.49
2019-04-27T02:13:04.328Z,101532.98
2019-04-27T02:14:05.821Z,101532.50
2019-04-27T02:15:08.851Z,101529.30
2019-04-27T02:16:11.026Z,101531.98
2019-04-27T02:17:12.404Z,101535.53
2019-04-27T02:18:13.891Z,101528.95
2019-04-27T02:19:15.272Z,101534.67
2019-04-27T02:20:16.732Z,101534.19
2019-04-27T02:21:19.262Z,101535.67
2019-04-27T02:22:20.915Z,101531.98
2019-04-27T02:23:22.300Z,101533.84
2019-04-27T02:24:23.700Z,101535.67
2019-04-27T02:25:25.582Z,101538.35
2019-04-27T02:26:26.981Z,101537.88
2019-04-27T02:27:29.264Z,101536.53
2019-04-27T02:28:49.550Z,101538.22
2019-04-27T02:29:53.058Z,101538.35
2019-04-27T02:31:11.765Z,101534.38
2019-04-27T02:32:15.070Z,101530.64
2019-04-27T02:33:29.935Z,101529.30
2019-04-27T02:34:39.893Z,101530.11
2019-04-27T02:35:42.095Z,101530.58
2019-04-27T02:36:43.694Z,101525.50
2019-04-27T02:37:45.076Z,101530.69
2019-04-27T02:38:49.191Z,101529.48
2019-04-27T02:39:50.762Z,101527.78
2019-04-27T02:40:54.763Z,101523.41
2019-04-27T02:41:56.176Z,101518.89
2019-04-27T02:42:59.357Z,101523.27
2019-04-27T02:44:11.937Z,101519.72
2019-04-27T02:45:13.443Z,101525.80
2019-04-27T02:46:14.857Z,101520.77
2019-04-27T02:47:16.459Z,101523.97
2019-04-27T02:48:19.895Z,101523.97
2019-04-27T02:49:21.133Z,101522.98
2019-04-27T02:50:22.585Z,101517.73
2019-04-27T02:51:29.983Z,101521.13
2019-04-27T02:52:35.935Z,101519.43
2019-04-27T02:53:54.284Z,101528.19
2019-04-27T02:54:55.679Z,101523.17
2019-04-27T02:55:59.331Z,101517.80
2019-04-27T02:57:00.354Z,101522.34
2019-04-27T02:58:01.750Z,101526.02
2019-04-27T02:59:03.238Z,101527.84
2019-04-27T03:00:06.726Z,101524.51
2019-04-27T03:01:09.978Z,101526.72
2019-04-27T03:02:13.313Z,101523.52
2019-04-27T03:03:14.921Z,101519.35
2019-04-27T03:04:16.276Z,101523.22
2019-04-27T03:05:21.259Z,101521.05
2019-04-27T03:06:23.646Z,101520.19
2019-04-27T03:07:25.027Z,101519.54
2019-04-27T03:08:26.450Z,101524.91
2019-04-27T03:09:30.232Z,101514.67
2019-04-27T03:10:31.346Z,101519.06
2019-04-27T03:11:32.813Z,101522.23
2019-04-27T03:12:36.114Z,101523.22
2019-04-27T03:13:54.627Z,101519.54
2019-04-27T03:15:14.789Z,101514.16
2019-04-27T03:16:20.316Z,101523.27
2019-04-27T03:17:32.334Z,101526.96
2019-04-27T03:18:40.326Z,101526.77
2019-04-27T03:19:52.609Z,101521.87
2019-04-27T03:21:00.292Z,101523.03
2019-04-27T03:22:16.124Z,101523.52
2019-04-27T03:23:19.884Z,101518.66
2019-04-27T03:24:23.087Z,101520.99
2019-04-27T03:25:44.631Z,101515.75
2019-04-27T03:26:50.018Z,101511.83
2019-04-27T03:28:02.088Z,101517.39
2019-04-27T03:29:02.955Z,101514.52
2019-04-27T03:30:06.558Z,101517.03
2019-04-27T03:31:12.483Z,101515.86
2019-04-27T03:32:13.061Z,101514.64
2019-04-27T03:33:14.526Z,101516.34
2019-04-27T03:34:17.759Z,101517.20
2019-04-27T03:35:22.842Z,101511.61
2019-04-27T03:36:23.111Z,101516.34
2019-04-27T03:37:24.532Z,101509.97
2019-04-27T03:38:26.026Z,101510.97
2019-04-27T03:39:27.447Z,101510.97
2019-04-27T03:40:30.761Z,101510.61
2019-04-27T03:41:32.448Z,101513.65
2019-04-27T03:42:37.370Z,101520.23
2019-04-27T03:43:40.219Z,101516.20
2019-04-27T03:44:41.709Z,101514.86
2019-04-27T03:45:43.116Z,101512.02
2019-04-27T03:46:44.572Z,101519.24
2019-04-27T03:47:46.028Z,101517.39
2019-04-27T03:48:49.742Z,101516.05
2019-04-27T03:49:51.017Z,101515.56
2019-04-27T03:51:11.142Z,101508.33
2019-04-27T03:52:30.108Z,101512.71
2019-04-27T03:53:40.530Z,101518.30
2019-04-27T03:54:43.832Z,101519.13
2019-04-27T03:56:02.252Z,101524.16
2019-04-27T03:57:05.577Z,101521.29
2019-04-27T03:58:14.646Z,101515.40
2019-04-27T03:59:19.591Z,101517.73
2019-04-27T04:00:26.160Z,101517.73
2019-04-27T04:01:30.082Z,101520.42
2019-04-27T04:02:31.052Z,101517.73
2019-04-27T04:03:32.460Z,101519.08
2019-04-27T04:04:33.922Z,101523.27
2019-04-27T04:05:35.430Z,101519.24
2019-04-27T04:06:36.794Z,101517.91
2019-04-27T04:07:40.189Z,101514.70
2019-04-27T04:08:41.697Z,101520.42
2019-04-27T04:09:43.085Z,101516.39
2019-04-27T04:10:52.123Z,101516.05
2019-04-27T04:11:55.411Z,101511.66
2019-04-27T04:13:04.487Z,101522.12
2019-04-27T04:14:20.373Z,101520.94
2019-04-27T04:15:24.803Z,101519.59
2019-04-27T04:16:34.060Z,101515.05
2019-04-27T04:17:35.552Z,101511.66
2019-04-27T04:18:57.365Z,101515.69
2019-04-27T04:20:01.614Z,101518.03
2019-04-27T04:21:03.359Z,101517.03
2019-04-27T04:22:04.703Z,101519.02
2019-04-27T04:23:06.169Z,101514.30
2019-04-27T04:24:08.994Z,101512.60
2019-04-27T04:25:11.014Z,101511.26
2019-04-27T04:26:12.456Z,101512.60
2019-04-27T04:27:13.844Z,101514.07
2019-04-27T04:28:15.236Z,101513.59
2019-04-27T04:29:16.613Z,101515.93
2019-04-27T04:30:20.002Z,101507.52
2019-04-27T04:31:21.285Z,101510.20
2019-04-27T04:32:23.794Z,101513.25
2019-04-27T04:33:25.813Z,101511.90
2019-04-27T04:34:29.701Z,101508.70
2019-04-27T04:35:33.262Z,101511.26
2019-04-27T04:36:33.825Z,101513.78
2019-04-27T04:37:35.323Z,101515.64
2019-04-27T04:38:36.804Z,101515.47
2019-04-27T04:39:40.292Z,101519.38
2019-04-27T04:40:50.442Z,101509.48
2019-04-27T04:42:10.501Z,101509.97
2019-04-27T04:43:13.925Z,101516.05
2019-04-27T04:44:20.145Z,101513.06
2019-04-27T04:45:25.293Z,101513.70
2019-04-27T04:46:49.940Z,101510.67
2019-04-27T04:47:52.439Z,101509.48
2019-04-27T04:48:53.838Z,101515.05
2019-04-27T04:50:10.197Z,101507.28
2019-04-27T04:50:59.975Z,101507.28
2019-04-27T04:52:01.752Z,101505.94
2019-04-27T04:53:03.251Z,101508.98
2019-04-27T04:54:04.625Z,101508.49
2019-04-27T04:55:06.229Z,101511.53
2019-04-27T04:56:09.006Z,101506.98
2019-04-27T04:57:10.957Z,101507.20
2019-04-27T04:58:12.366Z,101511.23
2019-04-27T04:59:13.784Z,101512.93
2019-04-27T05:00:15.390Z,101507.91
2019-04-27T05:01:16.824Z,101508.61
2019-04-27T05:02:19.157Z,101511.64
2019-04-27T05:03:21.898Z,101507.61
2019-04-27T05:04:23.760Z,101504.41
2019-04-27T05:05:25.167Z,101508.78
2019-04-27T05:06:26.554Z,101508.44
2019-04-27T05:07:29.597Z,101505.27
2019-04-27T05:08:31.187Z,101508.44
2019-04-27T05:09:32.701Z,101508.78
2019-04-27T05:10:34.115Z,101504.75
2019-04-27T05:11:35.521Z,101504.75
2019-04-27T05:12:38.590Z,101507.80
2019-04-27T05:13:40.120Z,101508.30
2019-04-27T05:14:41.608Z,101508.78
2019-04-27T05:15:43.108Z,101508.30
2019-04-27T05:16:44.473Z,101511.83
2019-04-27T05:17:45.886Z,101507.80
2019-04-27T05:18:47.399Z,101506.45
2019-04-27T05:19:49.312Z,101507.31
2019-04-27T05:20:55.744Z,101509.66
2019-04-27T05:21:58.813Z,101508.30
2019-04-27T05:23:00.429Z,101510.13
2019-04-27T05:24:03.320Z,101515.86
2019-04-27T05:25:04.703Z,101505.62
2019-04-27T05:26:06.111Z,101513.52
2019-04-27T05:27:09.103Z,101512.17
2019-04-27T05:28:10.817Z,101510.00
2019-04-27T05:29:12.228Z,101508.14
2019-04-27T05:30:13.741Z,101509.14
2019-04-27T05:31:15.248Z,101505.11
2019-04-27T05:32:16.689Z,101504.75
2019-04-27T05:33:18.723Z,101504.75
2019-04-27T05:34:20.324Z,101507.96
2019-04-27T05:35:22.030Z,101504.41
2019-04-27T05:36:23.548Z,101506.27
2019-04-27T05:37:28.387Z,101504.92
2019-04-27T05:38:29.458Z,101506.27
2019-04-27T05:39:32.117Z,101506.61
2019-04-27T05:40:33.591Z,101500.89
2019-04-27T05:41:37.489Z,101502.02
2019-04-27T05:42:39.726Z,101502.02
2019-04-27T05:43:45.908Z,101510.94
2019-04-27T05:45:01.247Z,101506.05
2019-04-27T05:46:20.495Z,101507.39
2019-04-27T05:47:24.774Z,101511.29
2019-04-27T05:48:30.906Z,101511.13
2019-04-27T05:49:36.400Z,101514.11
2019-04-27T05:50:43.093Z,101510.59
2019-04-27T05:51:42.051Z,101512.93
2019-04-27T05:52:43.669Z,101511.58
2019-04-27T05:53:45.065Z,101514.63
2019-04-27T05:54:46.445Z,101513.41
2019-04-27T05:55:49.433Z,101508.38
2019-04-27T05:56:51.033Z,101505.70
2019-04-27T05:57:52.426Z,101510.42
2019-04-27T05:58:53.828Z,101506.39
2019-04-27T05:59:55.204Z,101508.61
2019-04-27T06:00:56.708Z,101512.98
2019-04-27T06:01:59.265Z,101514.67
2019-04-27T06:03:00.883Z,101508.44
2019-04-27T06:04:02.410Z,101510.13
2019-04-27T06:05:04.997Z,101510.13
2019-04-27T06:06:06.389Z,101511.34
2019-04-27T06:07:09.225Z,101516.20
2019-04-27T06:08:10.660Z,101516.91
2019-04-27T06:09:12.153Z,101514.91
2019-04-27T06:10:13.524Z,101520.55
2019-04-27T06:11:15.026Z,101519.42
2019-04-27T06:12:16.395Z,101520.81
2019-04-27T06:13:18.987Z,101516.48
2019-04-27T06:14:20.620Z,101523.25
2019-04-27T06:15:22.000Z,101520.97
2019-04-27T06:16:23.573Z,101518.33
2019-04-27T06:17:24.946Z,101520.58
2019-04-27T06:18:26.340Z,101522.11
2019-04-27T06:19:29.109Z,101520.46
2019-04-27T06:20:30.662Z,101516.82
2019-04-27T06:21:32.066Z,101521.42
2019-04-27T06:22:33.482Z,101521.12
2019-04-27T06:23:34.900Z,101515.95
2019-04-27T06:24:36.330Z,101516.98
2019-04-27T06:25:39.329Z,101523.41
2019-04-27T06:26:40.833Z,101522.11
2019-04-27T06:27:42.200Z,101520.81
2019-04-27T06:28:43.588Z,101524.55
2019-04-27T06:29:44.981Z,101524.59
2019-04-27T06:30:46.388Z,101529.66
2019-04-27T06:31:49.452Z,101524.84
2019-04-27T06:32:51.116Z,101528.95
2019-04-27T06:33:52.529Z,101522.26
2019-04-27T06:34:53.924Z,101522.95
2019-04-27T06:35:55.399Z,101520.81
2019-04-27T06:36:56.803Z,101526.72
2019-04-27T06:37:58.670Z,101528.63
2019-04-27T06:39:00.222Z,101522.58
2019-04-27T06:40:03.054Z,101524.97
2019-04-27T06:41:04.426Z,101531.05
2019-04-27T06:42:16.060Z,101528.87
2019-04-27T06:43:09.102Z,101538.16
2019-04-27T06:44:11.452Z,101536.02
2019-04-27T06:45:13.216Z,101536.70
2019-04-27T06:46:14.600Z,101538.74
2019-04-27T06:47:16.167Z,101541.95
2019-04-27T06:48:19.322Z,101538.27
2019-04-27T06:49:20.941Z,101537.27
2019-04-27T06:50:22.463Z,101531.73
2019-04-27T06:51:23.853Z,101529.56
2019-04-27T06:52:25.241Z,101534.29
2019-04-27T06:53:26.632Z,101537.19
2019-04-27T06:54:29.147Z,101533.01
2019-04-27T06:55:30.622Z,101530.48
2019-04-27T06:56:32.005Z,101526.79
2019-04-27T06:57:33.404Z,101527.83
2019-04-27T06:58:34.781Z,101524.81
2019-04-27T06:59:37.283Z,101529.55
2019-04-27T07:00:39.516Z,101524.36
2019-04-27T07:01:41.191Z,101530.09
2019-04-27T07:02:42.668Z,101532.61
2019-04-27T07:03:44.060Z,101534.16
2019-04-27T07:04:45.444Z,101527.63
2019-04-27T07:05:48.595Z,101531.16
2019-04-27T07:06:53.922Z,101534.08
2019-04-27T07:07:53.454Z,101529.03
2019-04-27T07:08:55.343Z,101530.20
2019-04-27T07:09:58.909Z,101528.72
2019-04-27T07:11:00.469Z,101531.24
2019-04-27T07:12:02.022Z,101532.93
2019-04-27T07:13:04.515Z,101532.93
2019-04-27T07:14:06.096Z,101541.22
2019-04-27T07:15:08.915Z,101535.83
2019-04-27T07:16:10.480Z,101534.65
2019-04-27T07:17:11.852Z,101525.56
2019-04-27T07:18:13.523Z,101527.59
2019-04-27T07:19:15.008Z,101527.94
2019-04-27T07:20:16.508Z,101529.66
2019-04-27T07:21:22.798Z,101525.09
2019-04-27T07:22:21.328Z,101525.09
2019-04-27T07:23:22.710Z,101535.22
2019-04-27T07:24:24.104Z,101534.73
2019-04-27T07:25:25.496Z,101531.70
2019-04-27T07:26:27.028Z,101536.08
2019-04-27T07:27:29.422Z,101535.73
2019-04-27T07:28:30.927Z,101532.70
2019-04-27T07:29:32.422Z,101533.88
2019-04-27T07:30:33.926Z,101535.56
2019-04-27T07:31:35.314Z,101538.26
2019-04-27T07:32:36.709Z,101536.25
2019-04-27T07:33:39.583Z,101539.29
2019-04-27T07:34:41.097Z,101537.45
2019-04-27T07:35:42.492Z,101544.20
2019-04-27T07:36:44.019Z,101540.49
2019-04-27T07:37:45.407Z,101536.45
2019-04-27T07:38:48.531Z,101545.37
2019-04-27T07:39:50.390Z,101538.63
2019-04-27T07:40:51.906Z,101540.31
2019-04-27T07:41:53.328Z,101539.48
2019-04-27T07:42:56.609Z,101534.09
2019-04-27T07:44:16.571Z,101538.97
2019-04-27T07:45:19.856Z,101540.84
2019-04-27T07:46:21.348Z,101545.91
2019-04-27T07:47:30.728Z,101543.02
2019-04-27T07:48:31.051Z,101547.92
2019-04-27T07:49:32.456Z,101539.14
2019-04-27T07:50:33.964Z,101544.02
2019-04-27T07:51:35.379Z,101545.54
2019-04-27T07:52:38.695Z,101544.20
2019-04-27T07:53:40.051Z,101544.67
2019-04-27T07:54:41.456Z,101544.20
2019-04-27T07:55:42.849Z,101548.73
2019-04-27T07:56:44.249Z,101548.23
2019-04-27T07:57:45.637Z,101545.02
2019-04-27T07:58:49.434Z,101540.15
2019-04-27T07:59:51.879Z,101541.98
2019-04-27T08:00:53.389Z,101542.33
2019-04-27T08:01:54.813Z,101545.88
2019-04-27T08:02:56.212Z,101550.41
2019-04-27T08:03:59.082Z,101549.58
2019-04-27T08:05:00.699Z,101554.64
2019-04-27T08:06:02.072Z,101552.77
2019-04-27T08:07:03.569Z,101553.11
2019-04-27T08:08:04.991Z,101551.28
2019-04-27T08:09:06.804Z,101552.77
2019-04-27T08:10:09.737Z,101548.37
2019-04-27T08:11:11.498Z,101553.43
2019-04-27T08:12:12.942Z,101549.73
2019-04-27T08:13:14.440Z,101550.59
2019-04-27T08:14:15.928Z,101553.62
2019-04-27T08:15:18.908Z,101554.64
2019-04-27T08:16:20.776Z,101560.37
2019-04-27T08:17:22.298Z,101553.28
2019-04-27T08:18:23.721Z,101551.94
2019-04-27T08:19:26.310Z,101555.12
2019-04-27T08:20:29.423Z,101556.33
2019-04-27T08:21:43.041Z,101559.02
2019-04-27T08:22:34.341Z,101551.63
2019-04-27T08:23:35.766Z,101557.36
2019-04-27T08:24:37.248Z,101560.20
2019-04-27T08:25:39.246Z,101552.63
2019-04-27T08:26:45.506Z,101561.40
2019-04-27T08:27:49.344Z,101564.92
2019-04-27T08:28:58.756Z,101559.88
2019-04-27T08:30:16.927Z,101562.09
2019-04-27T08:31:23.026Z,101559.39
2019-04-27T08:32:26.345Z,101557.52
2019-04-27T08:33:28.992Z,101559.39
2019-04-27T08:34:34.386Z,101561.40
2019-04-27T08:35:35.867Z,101561.06
2019-04-27T08:36:38.848Z,101558.16
2019-04-27T08:37:40.664Z,101563.06
2019-04-27T08:38:42.089Z,101559.50
2019-04-27T08:39:43.544Z,101561.38
2019-04-27T08:40:44.940Z,101557.67
2019-04-27T08:41:46.340Z,101560.52
2019-04-27T08:42:49.190Z,101561.86
2019-04-27T08:43:51.117Z,101561.38
2019-04-27T08:44:52.530Z,101558.68
2019-04-27T08:45:53.946Z,101556.64
2019-04-27T08:46:56.348Z,101561.03
2019-04-27T08:47:59.486Z,101562.03
2019-04-27T08:49:02.152Z,101557.81
2019-04-27T08:50:04.132Z,101557.98
2019-04-27T08:51:05.504Z,101563.38
2019-04-27T08:52:09.189Z,101559.34
2019-04-27T08:53:10.339Z,101557.65
2019-04-27T08:54:11.741Z,101558.66
2019-04-27T08:55:13.272Z,101558.66
2019-04-27T08:56:14.659Z,101562.70
2019-04-27T08:57:16.049Z,101560.48
2019-04-27T08:58:19.672Z,101555.95
2019-04-27T08:59:20.734Z,101565.05
2019-04-27T09:00:22.134Z,101567.74
2019-04-27T09:01:23.508Z,101567.40
2019-04-27T09:02:24.917Z,101569.58
2019-04-27T09:03:26.292Z,101570.58
2019-04-27T09:04:28.836Z,101568.75
2019-04-27T09:05:30.376Z,101562.98
2019-04-27T09:06:32.764Z,101569.23
2019-04-27T09:07:39.781Z,101565.67
2019-04-27T09:08:43.236Z,101566.19
2019-04-27T09:09:46.532Z,101568.75
2019-04-27T09:10:49.865Z,101565.19
2019-04-27T09:12:10.039Z,101568.89
2019-04-27T09:13:13.353Z,101564.33
2019-04-27T09:14:16.624Z,101572.79
2019-04-27T09:15:31.838Z,101570.23
2019-04-27T09:16:35.137Z,101570.38
2019-04-27T09:17:50.478Z,101569.37
2019-04-27T09:18:53.779Z,101575.77
2019-04-27T09:20:00.983Z,101571.72
2019-04-27T09:21:05.318Z,101571.04
2019-04-27T09:22:16.025Z,101575.59
2019-04-27T09:23:11.356Z,101584.69
2019-04-27T09:24:12.740Z,101580.64
2019-04-27T09:25:14.140Z,101581.12
2019-04-27T09:26:15.649Z,101587.04
2019-04-27T09:27:17.963Z,101591.91
2019-04-27T09:28:21.912Z,101589.56
2019-04-27T09:29:23.508Z,101587.38
2019-04-27T09:30:25.032Z,101589.56
2019-04-27T09:31:26.450Z,101589.56
2019-04-27T09:32:28.977Z,101586.37
2019-04-27T09:33:30.541Z,101591.25
2019-04-27T09:34:31.920Z,101586.73
2019-04-27T09:35:33.416Z,101595.30
2019-04-27T09:36:34.834Z,101588.56
2019-04-27T09:37:36.666Z,101588.91
2019-04-27T09:38:38.158Z,101589.77
2019-04-27T09:39:39.573Z,101585.38
2019-04-27T09:40:40.986Z,101584.03
2019-04-27T09:41:42.424Z,101589.42
2019-04-27T09:42:43.800Z,101591.59
2019-04-27T09:43:46.626Z,101589.42
2019-04-27T09:44:48.169Z,101590.25
2019-04-27T09:45:49.560Z,101584.52
2019-04-27T09:46:50.981Z,101591.25
2019-04-27T09:47:52.392Z,101588.91
2019-04-27T09:48:53.801Z,101584.86
2019-04-27T09:49:56.550Z,101586.87
2019-04-27T09:50:58.096Z,101593.46
2019-04-27T09:51:59.558Z,101595.98
2019-04-27T09:53:00.929Z,101595.98
2019-04-27T09:54:02.540Z,101589.77
2019-04-27T09:55:06.907Z,101591.59
2019-04-27T09:56:08.225Z,101597.33
2019-04-27T09:57:09.618Z,101590.25
2019-04-27T09:58:11.008Z,101588.91
2019-04-27T09:59:12.509Z,101586.20
2019-04-27T10:00:15.995Z,101582.16
2019-04-27T10:01:18.168Z,101587.20
2019-04-27T10:02:20.688Z,101593.95
2019-04-27T10:03:22.072Z,101588.56
2019-04-27T10:04:23.480Z,101586.73
2019-04-27T10:05:26.371Z,101592.11
2019-04-27T10:06:30.016Z,101586.73
2019-04-27T10:07:31.391Z,101588.21
2019-04-27T10:08:32.780Z,101585.03
2019-04-27T10:09:34.282Z,101588.21
2019-04-27T10:10:37.212Z,101586.03
2019-04-27T10:11:38.868Z,101589.56
2019-04-27T10:12:40.275Z,101589.08
2019-04-27T10:13:41.715Z,101593.12
2019-04-27T10:14:43.220Z,101586.87
2019-04-27T10:15:45.972Z,101589.91
2019-04-27T10:16:47.500Z,101587.38
2019-04-27T10:17:48.889Z,101582.83
2019-04-27T10:18:50.283Z,101588.21
2019-04-27T10:19:51.673Z,101590.91
2019-04-27T10:20:59.710Z,101590.08
2019-04-27T10:21:56.532Z,101588.56
2019-04-27T10:22:58.043Z,101593.95
2019-04-27T10:23:59.447Z,101586.87
2019-04-27T10:25:00.945Z,101589.56
2019-04-27T10:26:02.323Z,101590.08
2019-04-27T10:27:05.575Z,101598.51
2019-04-27T10:28:07.205Z,101592.78
2019-04-27T10:29:08.574Z,101590.42
2019-04-27T10:30:10.372Z,101594.12
2019-04-27T10:31:11.752Z,101590.91
2019-04-27T10:32:13.154Z,101592.26
2019-04-27T10:33:16.120Z,101590.91
2019-04-27T10:34:17.661Z,101590.08
2019-04-27T10:35:19.090Z,101591.25
2019-04-27T10:36:38.918Z,101595.30
2019-04-27T10:37:40.338Z,101590.25
2019-04-27T10:38:41.851Z,101590.59
2019-04-27T10:39:43.227Z,101592.95
2019-04-27T10:40:44.627Z,101592.11
2019-04-27T10:41:46.403Z,101589.08
2019-04-27T10:42:47.898Z,101592.26
2019-04-27T10:43:49.317Z,101592.26
2019-04-27T10:44:50.724Z,101588.56
2019-04-27T10:45:52.140Z,101593.95
2019-04-27T10:46:53.550Z,101590.77
2019-04-27T10:47:56.282Z,101584.38
2019-04-27T10:48:57.765Z,101587.06
2019-04-27T10:49:59.147Z,101583.52
2019-04-27T10:51:00.545Z,101584.86
2019-04-27T10:52:02.022Z,101590.94
2019-04-27T10:53:03.687Z,101589.11
2019-04-27T10:54:05.314Z,101591.28
2019-04-27T10:55:06.815Z,101590.45
2019-04-27T10:56:08.428Z,101589.59
2019-04-27T10:57:09.841Z,101589.11
2019-04-27T10:58:11.250Z,101590.31
2019-04-27T10:59:12.654Z,101590.80
2019-04-27T11:00:16.734Z,101592.00
2019-04-27T11:01:18.424Z,101589.31
2019-04-27T11:02:19.804Z,101592.00
2019-04-27T11:03:39.742Z,101589.66
2019-04-27T11:04:48.820Z,101593.17
2019-04-27T11:05:56.866Z,101592.03
2019-04-27T11:07:00.384Z,101598.43
2019-04-27T11:08:01.807Z,101590.34
2019-04-27T11:09:09.156Z,101592.00
2019-04-27T11:10:11.651Z,101592.48
2019-04-27T11:11:13.037Z,101592.34
2019-04-27T11:12:15.848Z,101591.00
2019-04-27T11:13:17.316Z,101593.70
2019-04-27T11:14:18.821Z,101601.27
2019-04-27T11:15:20.309Z,101596.39
2019-04-27T11:16:21.722Z,101597.56
2019-04-27T11:17:23.130Z,101598.91
2019-04-27T11:18:25.785Z,101595.39
2019-04-27T11:19:27.361Z,101599.77
2019-04-27T11:20:28.787Z,101597.77
2019-04-27T11:21:30.268Z,101599.77
2019-04-27T11:22:31.655Z,101594.04
2019-04-27T11:23:33.129Z,101597.08
2019-04-27T11:24:34.657Z,101590.83
2019-04-27T11:25:36.560Z,101592.52
2019-04-27T11:26:37.970Z,101592.17
2019-04-27T11:27:39.361Z,101591.69
2019-04-27T11:28:42.744Z,101590.48
2019-04-27T11:29:44.045Z,101590.14
2019-04-27T11:30:46.546Z,101591.14
2019-04-27T11:31:48.020Z,101599.09
2019-04-27T11:32:49.525Z,101592.00
2019-04-27T11:33:51.400Z,101589.31
2019-04-27T11:35:03.590Z,101592.00
2019-04-27T11:36:18.599Z,101592.00
2019-04-27T11:37:21.882Z,101592.00
2019-04-27T11:38:23.280Z,101595.39
2019-04-27T11:39:26.041Z,101592.00
2019-04-27T11:40:27.751Z,101592.14
2019-04-27T11:41:29.170Z,101586.89
2019-04-27T11:42:30.581Z,101580.09
2019-04-27T11:43:31.996Z,101589.25
2019-04-27T11:44:33.424Z,101591.25
2019-04-27T11:45:36.646Z,101589.25
2019-04-27T11:46:38.270Z,101595.16
2019-04-27T11:47:39.649Z,101598.34
2019-04-27T11:48:41.154Z,101592.95
2019-04-27T11:49:42.625Z,101591.25
2019-04-27T11:50:45.898Z,101589.91
2019-04-27T11:51:48.656Z,101596.16
2019-04-27T11:52:50.051Z,101592.11
2019-04-27T11:53:51.504Z,101596.16
2019-04-27T11:54:53.190Z,101598.86
2019-04-27T11:55:54.579Z,101598.65
2019-04-27T11:56:56.144Z,101596.64
2019-04-27T11:57:57.474Z,101604.73
2019-04-27T11:58:58.868Z,101601.20
2019-04-27T12:00:00.242Z,101598.99
2019-04-27T12:01:01.738Z,101600.00
2019-04-27T12:02:03.125Z,101604.73
2019-04-27T12:03:04.530Z,101607.42